createdAt,value
2018-10-07T00:01:46.400Z,99819.00
2018-10-07T00:04:14.457Z,99821.00
2018-10-07T00:06:42.656Z,99829.00
2018-10-07T00:09:10.765Z,99824.00
2018-10-07T00:11:38.908Z,99826.00
2018-10-07T00:14:07.062Z,99823.00
2018-10-07T00:16:35.190Z,99820.00
2018-10-07T00:19:03.434Z,99828.00
2018-10-07T00:21:31.577Z,99834.00
2018-10-07T00:23:59.694Z,99826.00
2018-10-07T00:26:27.756Z,99837.00
2018-10-07T00:28:55.854Z,99834.00
2018-10-07T00:31:24.093Z,99846.00
2018-10-07T00:33:52.267Z,99844.00
2018-10-07T00:36:20.452Z,99844.00
2018-10-07T00:38:48.695Z,99842.00
2018-10-07T00:41:16.777Z,99835.00
2018-10-07T00:43:45.955Z,99848.00
2018-10-07T00:46:14.006Z,99849.00
2018-10-07T00:48:42.187Z,99848.00
2018-10-07T00:51:10.381Z,99860.00
2018-10-07T00:53:38.466Z,99852.00
2018-10-07T00:56:06.658Z,99851.00
2018-10-07T00:58:34.775Z,99843.00
2018-10-07T01:01:02.969Z,99852.00
2018-10-07T01:03:31.092Z,99855.00
2018-10-07T01:05:59.186Z,99861.00
2018-10-07T01:08:27.355Z,99850.00
2018-10-07T01:10:55.453Z,99856.00
2018-10-07T01:13:23.524Z,99862.00
2018-10-07T01:15:51.609Z,99853.00
2018-10-07T01:18:19.691Z,99849.00
2018-10-07T01:20:47.928Z,99850.00
2018-10-07T01:23:16.019Z,99856.00
2018-10-07T01:25:44.137Z,99856.00
2018-10-07T01:28:12.230Z,99861.00
2018-10-07T01:30:40.347Z,99866.00
2018-10-07T01:33:08.431Z,99860.00
2018-10-07T01:35:36.477Z,99863.00
2018-10-07T01:38:04.510Z,99868.00
2018-10-07T01:40:32.628Z,99878.00
2018-10-07T01:43:00.617Z,99872.00
2018-10-07T01:45:28.699Z,99874.00
2018-10-07T01:47:56.736Z,99875.00
2018-10-07T01:50:24.819Z,99872.00
2018-10-07T01:52:52.822Z,99875.00
2018-10-07T01:55:21.109Z,99870.00
2018-10-07T01:57:49.135Z,99872.00
2018-10-07T02:00:17.212Z,99875.00
2018-10-07T02:02:45.274Z,99872.00
2018-10-07T02:05:13.323Z,99875.00
2018-10-07T02:07:41.448Z,99873.00
2018-10-07T02:10:09.505Z,99873.00
2018-10-07T02:12:37.566Z,99878.00
2018-10-07T02:15:05.684Z,99873.00
2018-10-07T02:17:33.754Z,99876.00
2018-10-07T02:20:01.882Z,99877.00
2018-10-07T02:22:29.968Z,99879.00
2018-10-07T02:24:57.992Z,99885.00
2018-10-07T02:27:26.024Z,99885.00
2018-10-07T02:29:54.077Z,99886.00
2018-10-07T02:32:22.162Z,99880.00
2018-10-07T02:34:50.214Z,99882.00
2018-10-07T02:37:18.344Z,99889.00
2018-10-07T02:39:46.410Z,99889.00
2018-10-07T02:42:14.432Z,99896.00
2018-10-07T02:44:42.512Z,99897.00
2018-10-07T02:47:10.572Z,99903.00
2018-10-07T02:49:38.641Z,99905.00
2018-10-07T02:52:07.026Z,99902.00
2018-10-07T02:54:35.125Z,99897.00
2018-10-07T02:57:03.299Z,99899.00
2018-10-07T02:59:31.440Z,99900.00
2018-10-07T03:01:59.591Z,99893.00
2018-10-07T03:04:27.673Z,99898.00
2018-10-07T03:06:55.735Z,99897.00
2018-10-07T03:09:23.879Z,99901.00
2018-10-07T03:11:51.912Z,99901.00
2018-10-07T03:14:19.948Z,99897.00
2018-10-07T03:16:47.933Z,99895.00
2018-10-07T03:19:15.880Z,99897.00
2018-10-07T03:21:44.009Z,99908.00
2018-10-07T03:24:12.117Z,99908.00
2018-10-07T03:26:40.221Z,99895.00
2018-10-07T03:29:08.309Z,99901.00
2018-10-07T03:31:36.489Z,99907.00
2018-10-07T03:34:04.677Z,99916.00
2018-10-07T03:36:32.744Z,99940.00
2018-10-07T03:39:00.861Z,99957.00
2018-10-07T03:41:28.973Z,99955.00
2018-10-07T03:43:57.066Z,99947.00
2018-10-07T03:46:25.109Z,99950.00
2018-10-07T03:48:53.171Z,99955.00
2018-10-07T03:51:21.228Z,99941.00
2018-10-07T03:53:49.309Z,99939.00
2018-10-07T03:56:17.412Z,99954.00
2018-10-07T03:58:45.437Z,99953.00
2018-10-07T04:01:13.659Z,99947.00
2018-10-07T04:03:41.996Z,99945.00
2018-10-07T04:06:10.116Z,99949.00
2018-10-07T04:08:38.239Z,99954.00
2018-10-07T04:11:06.502Z,99950.00
2018-10-07T04:13:34.560Z,99949.00
2018-10-07T04:16:02.559Z,99961.00
2018-10-07T04:18:30.660Z,99961.00
2018-10-07T04:20:58.708Z,99973.00
2018-10-07T04:23:26.814Z,99985.00
2018-10-07T04:25:54.954Z,99974.00
2018-10-07T04:28:23.007Z,99977.00
2018-10-07T04:30:51.138Z,99991.00
2018-10-07T04:33:19.216Z,99975.00
2018-10-07T04:35:47.244Z,99990.00
2018-10-07T04:38:15.289Z,99997.00
2018-10-07T04:40:43.313Z,100001.00
2018-10-07T04:43:11.353Z,100001.00
2018-10-07T04:45:39.418Z,99991.00
2018-10-07T04:48:07.605Z,99985.00
2018-10-07T04:50:35.881Z,100000.00
2018-10-07T04:53:04.121Z,100002.00
2018-10-07T04:55:32.268Z,99991.00
2018-10-07T04:58:00.363Z,99990.00
2018-10-07T05:00:28.576Z,100002.00
2018-10-07T05:02:56.652Z,100001.00
2018-10-07T05:05:26.071Z,100016.00
2018-10-07T05:07:54.278Z,100018.00
2018-10-07T05:10:50.756Z,100012.00
2018-10-07T05:13:20.776Z,100025.00
2018-10-07T05:15:53.243Z,100030.00
2018-10-07T05:18:21.404Z,100036.00
2018-10-07T05:20:49.643Z,100034.00
2018-10-07T05:23:18.880Z,100043.00
2018-10-07T05:25:47.116Z,100057.00
2018-10-07T05:28:15.536Z,100048.00
2018-10-07T05:30:43.676Z,100054.00
2018-10-07T05:33:11.892Z,100044.00
2018-10-07T05:35:39.970Z,100053.00
2018-10-07T05:38:08.044Z,100069.00
2018-10-07T05:40:36.137Z,100076.00
2018-10-07T05:43:04.268Z,100066.00
2018-10-07T05:45:32.434Z,100079.00
2018-10-07T05:48:00.461Z,100082.00
2018-10-07T05:50:28.514Z,100079.00
2018-10-07T05:52:56.582Z,100080.00
2018-10-07T05:55:24.740Z,100090.00
2018-10-07T05:57:58.591Z,100089.00
2018-10-07T06:00:28.740Z,100115.00
2018-10-07T06:03:22.652Z,100121.00
2018-10-07T06:05:51.526Z,100123.00
2018-10-07T06:08:20.518Z,100128.00
2018-10-07T06:10:48.679Z,100131.00
2018-10-07T06:13:16.797Z,100139.00
2018-10-07T06:15:45.663Z,100142.00
2018-10-07T06:18:14.058Z,100143.00
2018-10-07T06:20:42.230Z,100148.00
2018-10-07T06:23:10.357Z,100157.00
2018-10-07T06:25:38.510Z,100156.00
2018-10-07T06:28:06.644Z,100153.00
2018-10-07T06:30:34.972Z,100152.00
2018-10-07T06:33:03.034Z,100155.00
2018-10-07T06:35:31.176Z,100155.00
2018-10-07T06:37:59.327Z,100174.00
2018-10-07T06:40:27.420Z,100178.00
2018-10-07T06:42:55.566Z,100190.00
2018-10-07T06:45:23.968Z,100184.00
2018-10-07T06:47:52.217Z,100194.00
2018-10-07T06:50:20.396Z,100197.00
2018-10-07T06:52:48.544Z,100194.00
2018-10-07T06:55:16.898Z,100205.00
2018-10-07T06:57:45.272Z,100199.00
2018-10-07T07:00:13.629Z,100215.00
2018-10-07T07:02:41.927Z,100200.00
2018-10-07T07:05:10.157Z,100209.00
2018-10-07T07:07:38.292Z,100214.00
2018-10-07T07:10:06.764Z,100210.00
2018-10-07T07:12:35.089Z,100214.00
2018-10-07T07:15:03.338Z,100220.00
2018-10-07T07:17:31.565Z,100226.00
2018-10-07T07:19:59.901Z,100230.00
2018-10-07T07:22:28.227Z,100229.00
2018-10-07T07:24:56.455Z,100235.00
2018-10-07T07:27:24.604Z,100233.00
2018-10-07T07:29:52.778Z,100232.00
2018-10-07T07:32:26.119Z,100235.00
2018-10-07T07:34:54.517Z,100227.00
2018-10-07T07:37:22.725Z,100245.00
2018-10-07T07:39:50.873Z,100238.00
2018-10-07T07:42:19.146Z,100237.00
2018-10-07T07:44:47.255Z,100245.00
2018-10-07T07:47:16.247Z,100253.00
2018-10-07T07:49:44.941Z,100255.00
2018-10-07T07:52:13.243Z,100249.00
2018-10-07T07:54:41.508Z,100254.00
2018-10-07T07:59:56.923Z,100265.00
2018-10-07T08:02:25.457Z,100267.00
2018-10-07T08:04:53.750Z,100268.00
2018-10-07T08:07:22.061Z,100282.00
2018-10-07T08:09:50.221Z,100277.00
2018-10-07T08:12:18.529Z,100284.00
2018-10-07T08:14:46.762Z,100295.00
2018-10-07T08:17:15.064Z,100299.00
2018-10-07T08:19:43.281Z,100300.00
2018-10-07T08:22:11.588Z,100308.00
2018-10-07T08:24:39.797Z,100308.00
2018-10-07T08:27:08.091Z,100342.00
2018-10-07T08:29:36.352Z,100326.00
2018-10-07T08:32:04.689Z,100324.00
2018-10-07T08:34:32.913Z,100326.00
2018-10-07T08:37:01.130Z,100331.00
2018-10-07T08:39:29.333Z,100336.00
2018-10-07T08:41:57.577Z,100335.00
2018-10-07T08:44:26.503Z,100336.00
2018-10-07T08:46:54.967Z,100347.00
2018-10-07T08:49:23.287Z,100349.00
2018-10-07T08:51:51.510Z,100343.00
2018-10-07T08:54:19.771Z,100353.00
2018-10-07T08:56:48.077Z,100357.00
2018-10-07T08:59:16.275Z,100349.00
2018-10-07T09:01:44.609Z,100358.00
2018-10-07T09:04:13.094Z,100356.00
2018-10-07T09:06:41.477Z,100368.00
2018-10-07T09:09:10.451Z,100358.00
2018-10-07T09:11:38.741Z,100366.00
2018-10-07T09:14:07.057Z,100370.00
2018-10-07T09:16:35.391Z,100384.00
2018-10-07T09:19:03.853Z,100382.00
2018-10-07T09:21:32.125Z,100384.00
2018-10-07T09:24:00.403Z,100388.00
2018-10-07T09:26:29.031Z,100385.00
2018-10-07T09:28:57.342Z,100377.00
2018-10-07T09:31:25.636Z,100402.00
2018-10-07T09:33:53.919Z,100412.00
2018-10-07T09:36:22.072Z,100415.00
2018-10-07T09:38:50.270Z,100423.00
2018-10-07T09:41:18.581Z,100427.00
2018-10-07T09:43:47.103Z,100427.00
2018-10-07T09:46:15.647Z,100443.00
2018-10-07T09:48:44.192Z,100450.00
2018-10-07T09:51:12.462Z,100437.00
2018-10-07T09:53:40.899Z,100438.00
2018-10-07T09:56:09.202Z,100444.00
2018-10-07T09:58:38.977Z,100439.00
2018-10-07T10:01:07.301Z,100449.00
2018-10-07T10:03:35.914Z,100465.00
2018-10-07T10:06:04.216Z,100474.00
2018-10-07T10:08:32.926Z,100457.00
2018-10-07T10:11:01.241Z,100467.00
2018-10-07T10:13:29.667Z,100475.00
2018-10-07T10:15:57.897Z,100460.00
2018-10-07T10:18:46.183Z,100470.00
2018-10-07T10:21:30.941Z,100460.00
2018-10-07T10:24:36.680Z,100462.00
2018-10-07T10:27:47.697Z,100468.00
2018-10-07T10:30:30.442Z,100469.00
2018-10-07T10:33:16.971Z,100467.00
2018-10-07T10:38:04.424Z,100465.00
2018-10-07T10:40:37.782Z,100493.00
2018-10-07T10:43:21.859Z,100490.00
2018-10-07T10:46:44.615Z,100497.00
2018-10-07T10:49:36.649Z,100480.00
2018-10-07T10:52:16.701Z,100471.00
2018-10-07T10:55:00.100Z,100481.00
2018-10-07T10:57:53.196Z,100480.00
2018-10-07T11:00:27.081Z,100477.00
2018-10-07T11:05:48.314Z,100481.00
2018-10-07T11:08:42.969Z,100469.00
2018-10-07T11:11:26.699Z,100476.00
2018-10-07T11:14:05.161Z,100481.00
2018-10-07T11:18:51.026Z,100475.00
2018-10-07T11:23:39.510Z,100477.00
2018-10-07T11:26:29.924Z,100470.00
2018-10-07T11:29:10.238Z,100464.00
2018-10-07T11:31:50.597Z,100463.00
2018-10-07T11:36:43.282Z,100471.00
2018-10-07T11:39:27.104Z,100478.00
2018-10-07T11:42:20.142Z,100480.00
2018-10-07T11:45:05.490Z,100481.00
2018-10-07T11:47:56.515Z,100482.00
2018-10-07T11:50:44.706Z,100484.00
2018-10-07T11:53:45.607Z,100477.00
2018-10-07T11:56:13.850Z,100470.00
2018-10-07T11:58:42.182Z,100465.00
2018-10-07T12:01:10.523Z,100479.00
2018-10-07T12:03:38.719Z,100480.00
2018-10-07T12:06:06.946Z,100475.00
2018-10-07T12:08:35.336Z,100471.00
2018-10-07T12:11:03.619Z,100477.00
2018-10-07T12:13:32.442Z,100480.00
2018-10-07T12:16:00.867Z,100488.00
2018-10-07T12:18:29.129Z,100487.00
2018-10-07T12:20:57.339Z,100484.00
2018-10-07T12:23:25.547Z,100483.00
2018-10-07T12:25:53.789Z,100483.00
2018-10-07T12:28:21.935Z,100494.00
2018-10-07T12:30:50.271Z,100489.00
2018-10-07T12:33:18.512Z,100512.00
2018-10-07T12:35:46.675Z,100502.00
2018-10-07T12:38:14.938Z,100507.00
2018-10-07T12:40:44.320Z,100517.00
2018-10-07T12:43:12.587Z,100526.00
2018-10-07T12:45:40.925Z,100524.00
2018-10-07T12:48:09.030Z,100516.00
2018-10-07T12:50:37.310Z,100541.00
2018-10-07T12:53:05.681Z,100536.00
2018-10-07T12:55:34.128Z,100534.00
2018-10-07T12:58:02.378Z,100547.00
2018-10-07T13:00:30.618Z,100537.00
2018-10-07T13:02:58.793Z,100549.00
2018-10-07T13:05:27.034Z,100550.00
2018-10-07T13:07:55.222Z,100544.00
2018-10-07T13:10:23.555Z,100564.00
2018-10-07T13:12:52.435Z,100558.00
2018-10-07T13:15:20.772Z,100575.00
2018-10-07T13:17:49.195Z,100553.00
2018-10-07T13:20:17.484Z,100561.00
2018-10-07T13:22:45.902Z,100569.00
2018-10-07T13:25:15.445Z,100572.00
2018-10-07T13:27:43.754Z,100554.00
2018-10-07T13:30:11.941Z,100575.00
2018-10-07T13:32:40.407Z,100576.00
2018-10-07T13:35:09.125Z,100581.00
2018-10-07T13:37:37.494Z,100597.00
2018-10-07T13:40:06.283Z,100589.00
2018-10-07T13:42:34.593Z,100591.00
2018-10-07T13:45:02.955Z,100594.00
2018-10-07T13:47:31.077Z,100614.00
2018-10-07T13:49:59.547Z,100593.00
2018-10-07T13:52:27.812Z,100600.00
2018-10-07T13:54:56.200Z,100606.00
2018-10-07T13:57:25.418Z,100605.00
2018-10-07T13:59:53.679Z,100638.00
2018-10-07T14:02:21.960Z,100612.00
2018-10-07T14:04:50.175Z,100613.00
2018-10-07T14:07:18.270Z,100607.00
2018-10-07T14:09:46.634Z,100613.00
2018-10-07T14:12:14.806Z,100618.00
2018-10-07T14:14:43.022Z,100619.00
2018-10-07T14:17:11.288Z,100626.00
2018-10-07T14:19:39.432Z,100630.00
2018-10-07T14:22:07.596Z,100635.00
2018-10-07T14:24:36.004Z,100640.00
2018-10-07T14:27:04.368Z,100651.00
2018-10-07T14:29:32.533Z,100658.00
2018-10-07T14:32:00.714Z,100652.00
2018-10-07T14:34:28.869Z,100643.00
2018-10-07T14:36:57.061Z,100655.00
2018-10-07T14:39:25.219Z,100659.00
2018-10-07T14:41:53.423Z,100656.00
2018-10-07T14:44:21.633Z,100660.00
2018-10-07T14:46:50.006Z,100655.00
2018-10-07T14:49:18.340Z,100658.00
2018-10-07T14:51:46.813Z,100657.00
2018-10-07T14:54:15.011Z,100663.00
2018-10-07T14:56:43.161Z,100662.00
2018-10-07T14:59:11.401Z,100672.00
2018-10-07T15:01:39.830Z,100661.00
2018-10-07T15:04:08.142Z,100648.00
2018-10-07T15:06:36.540Z,100673.00
2018-10-07T15:09:09.395Z,100664.00
2018-10-07T15:11:37.688Z,100673.00
2018-10-07T15:14:06.118Z,100665.00
2018-10-07T15:16:34.616Z,100657.00
2018-10-07T15:19:02.929Z,100655.00
2018-10-07T15:21:31.433Z,100657.00
2018-10-07T15:23:59.674Z,100657.00
2018-10-07T15:26:27.928Z,100650.00
2018-10-07T15:28:56.111Z,100639.00
2018-10-07T15:31:24.369Z,100639.00
2018-10-07T15:33:52.736Z,100630.00
2018-10-07T15:36:21.078Z,100640.00
2018-10-07T15:38:49.338Z,100637.00
2018-10-07T15:41:18.069Z,100631.00
2018-10-07T15:43:46.406Z,100636.00
2018-10-07T15:46:14.650Z,100634.00
2018-10-07T15:48:42.899Z,100644.00
2018-10-07T15:51:11.201Z,100640.00
2018-10-07T15:53:39.434Z,100655.00
2018-10-07T15:56:07.800Z,100642.00
2018-10-07T15:58:36.037Z,100655.00
2018-10-07T16:01:04.588Z,100655.00
2018-10-07T16:03:32.929Z,100678.00
2018-10-07T16:06:01.225Z,100663.00
2018-10-07T16:08:29.522Z,100568.00
2018-10-07T16:10:57.693Z,100664.00
2018-10-07T16:13:26.116Z,100665.00
2018-10-07T16:15:54.340Z,100675.00
2018-10-07T16:18:22.718Z,100681.00
2018-10-07T16:20:51.094Z,100677.00
2018-10-07T16:23:19.420Z,100686.00
2018-10-07T16:25:47.792Z,100701.00
2018-10-07T16:28:15.952Z,100698.00
2018-10-07T16:30:44.384Z,100691.00
2018-10-07T16:33:12.697Z,100703.00
2018-10-07T16:35:41.075Z,100707.00
2018-10-07T16:38:09.377Z,100707.00
2018-10-07T16:40:37.612Z,100715.00
2018-10-07T16:43:06.025Z,100720.00
2018-10-07T16:45:34.345Z,100715.00
2018-10-07T16:48:02.671Z,100722.00
2018-10-07T16:50:31.080Z,100729.00
2018-10-07T16:52:59.558Z,100723.00
2018-10-07T16:55:27.860Z,100725.00
2018-10-07T16:57:56.262Z,100731.00
2018-10-07T17:00:24.584Z,100732.00
2018-10-07T17:02:52.979Z,100741.00
2018-10-07T17:05:22.252Z,100749.00
2018-10-07T17:07:50.539Z,100753.00
2018-10-07T17:10:18.823Z,100754.00
2018-10-07T17:12:47.040Z,100755.00
2018-10-07T17:15:15.392Z,100751.00
2018-10-07T17:17:43.728Z,100758.00
2018-10-07T17:20:11.991Z,100753.00
2018-10-07T17:22:40.607Z,100760.00
2018-10-07T17:25:08.901Z,100767.00
2018-10-07T17:27:37.279Z,100762.00
2018-10-07T17:30:05.758Z,100766.00
2018-10-07T17:32:34.446Z,100773.00
2018-10-07T17:35:02.753Z,100773.00
2018-10-07T17:37:31.071Z,100788.00
2018-10-07T17:39:59.392Z,100792.00
2018-10-07T17:42:27.689Z,100781.00
2018-10-07T17:44:55.940Z,100797.00
2018-10-07T17:47:24.242Z,100795.00
2018-10-07T17:49:52.603Z,100798.00
2018-10-07T17:52:21.007Z,100813.00
2018-10-07T17:54:49.399Z,100800.00
2018-10-07T17:57:17.634Z,100802.00
2018-10-07T17:59:46.002Z,100807.00
2018-10-07T18:02:14.343Z,100809.00
2018-10-07T18:04:42.865Z,100805.00
2018-10-07T18:07:11.233Z,100819.00
2018-10-07T18:09:39.636Z,100832.00
2018-10-07T18:12:07.940Z,100831.00
2018-10-07T18:14:36.265Z,100824.00
2018-10-07T18:17:04.586Z,100834.00
2018-10-07T18:19:32.971Z,100818.00
2018-10-07T18:22:01.345Z,100830.00
2018-10-07T18:24:29.677Z,100823.00
2018-10-07T18:26:57.918Z,100836.00
2018-10-07T18:29:26.369Z,100846.00
2018-10-07T18:31:54.743Z,100833.00
2018-10-07T18:34:23.288Z,100844.00
2018-10-07T18:36:51.507Z,100839.00
2018-10-07T18:39:19.950Z,100855.00
2018-10-07T18:41:48.572Z,100852.00
2018-10-07T18:44:16.869Z,100852.00
2018-10-07T18:46:45.136Z,100852.00
2018-10-07T18:49:13.447Z,100855.00
2018-10-07T18:51:41.690Z,100856.00
2018-10-07T18:54:09.962Z,100845.00
2018-10-07T18:56:38.191Z,100855.00
2018-10-07T18:59:06.410Z,100855.00
2018-10-07T19:01:34.692Z,100865.00
2018-10-07T19:04:03.053Z,100859.00
2018-10-07T19:06:31.364Z,100864.00
2018-10-07T19:08:59.768Z,100860.00
2018-10-07T19:11:28.090Z,100867.00
2018-10-07T19:13:56.586Z,100872.00
2018-10-07T19:16:24.922Z,100872.00
2018-10-07T19:18:53.381Z,100882.00
2018-10-07T19:21:22.030Z,100879.00
2018-10-07T19:23:50.409Z,100879.00
2018-10-07T19:26:18.728Z,100879.00
2018-10-07T19:28:47.044Z,100883.00
2018-10-07T19:31:15.259Z,100887.00
2018-10-07T19:33:43.965Z,100889.00
2018-10-07T19:36:12.303Z,100893.00
2018-10-07T19:38:40.571Z,100892.00
2018-10-07T19:41:09.077Z,100898.00
2018-10-07T19:43:37.482Z,100898.00
2018-10-07T19:46:05.969Z,100903.00
2018-10-07T19:48:34.433Z,100898.00
2018-10-07T19:51:02.850Z,100890.00
2018-10-07T19:53:31.093Z,100907.00
2018-10-07T19:55:59.422Z,100894.00
2018-10-07T19:58:27.737Z,100897.00
2018-10-07T20:00:56.370Z,100899.00
2018-10-07T20:03:24.741Z,100896.00
2018-10-07T20:05:53.043Z,100904.00
2018-10-07T20:08:21.638Z,100904.00
2018-10-07T20:10:50.175Z,100901.00
2018-10-07T20:13:18.879Z,100901.00
2018-10-07T20:15:47.458Z,100912.00
2018-10-07T20:18:15.966Z,100928.00
2018-10-07T20:20:44.314Z,100932.00
2018-10-07T20:23:12.616Z,100922.00
2018-10-07T20:25:41.228Z,100924.00
2018-10-07T20:28:09.906Z,100928.00
2018-10-07T20:30:38.225Z,100929.00
2018-10-07T20:33:06.812Z,100933.00
2018-10-07T20:35:35.325Z,100939.00
2018-10-07T20:38:03.926Z,100934.00
2018-10-07T20:40:32.659Z,100943.00
2018-10-07T20:43:00.849Z,100939.00
2018-10-07T20:45:29.167Z,100938.00
2018-10-07T20:47:57.490Z,100946.00
2018-10-07T20:50:25.719Z,100949.00
2018-10-07T20:52:54.056Z,100946.00
2018-10-07T20:55:22.336Z,100956.00
2018-10-07T20:57:50.670Z,100948.00
2018-10-07T21:00:18.892Z,100938.00
2018-10-07T21:02:47.683Z,100936.00
2018-10-07T21:05:15.916Z,100948.00
2018-10-07T21:07:44.155Z,100946.00
2018-10-07T21:10:12.369Z,100956.00
2018-10-07T21:12:40.940Z,100934.00
2018-10-07T21:15:09.089Z,100947.00
2018-10-07T21:17:37.390Z,100951.00
2018-10-07T21:20:05.680Z,100949.00
2018-10-07T21:22:33.937Z,100951.00
2018-10-07T21:25:02.114Z,100956.00
2018-10-07T21:27:30.407Z,100951.00
2018-10-07T21:29:58.664Z,100945.00
2018-10-07T21:32:26.863Z,100937.00
2018-10-07T21:34:55.049Z,100946.00
2018-10-07T21:37:23.396Z,100948.00
2018-10-07T21:39:51.593Z,100953.00
2018-10-07T21:42:19.740Z,100948.00
2018-10-07T21:44:48.045Z,100950.00
2018-10-07T21:47:16.306Z,100944.00
2018-10-07T21:49:44.481Z,100941.00
2018-10-07T21:52:12.557Z,100953.00
2018-10-07T21:54:40.784Z,100948.00
2018-10-07T21:57:08.970Z,100949.00
2018-10-07T21:59:37.140Z,100948.00
2018-10-07T22:02:05.243Z,100946.00
2018-10-07T22:04:33.754Z,100950.00
2018-10-07T22:07:02.012Z,100949.00
2018-10-07T22:09:30.108Z,100951.00
2018-10-07T22:11:58.244Z,100942.00
2018-10-07T22:14:26.426Z,100947.00
2018-10-07T22:16:54.619Z,100944.00
2018-10-07T22:19:22.813Z,100942.00
2018-10-07T22:21:51.039Z,100935.00
2018-10-07T22:24:19.190Z,100933.00
2018-10-07T22:26:47.449Z,100935.00
2018-10-07T22:29:15.559Z,100933.00
2018-10-07T22:31:43.805Z,100933.00
2018-10-07T22:34:12.006Z,100926.00
2018-10-07T22:36:40.110Z,100920.00
2018-10-07T22:39:08.908Z,100924.00
2018-10-07T22:41:37.292Z,100925.00
2018-10-07T22:44:05.472Z,100922.00
2018-10-07T22:46:33.630Z,100925.00
2018-10-07T22:49:01.752Z,100922.00
2018-10-07T22:51:29.863Z,100925.00
2018-10-07T22:53:57.954Z,100930.00
2018-10-07T22:56:26.150Z,100926.00
2018-10-07T22:58:54.404Z,100930.00
2018-10-07T23:01:22.627Z,100923.00
2018-10-07T23:03:50.753Z,100928.00
2018-10-07T23:06:18.918Z,100925.00
2018-10-07T23:08:47.115Z,100923.00
2018-10-07T23:11:15.243Z,100926.00
2018-10-07T23:13:43.352Z,100934.00
2018-10-07T23:16:11.529Z,100927.00
2018-10-07T23:18:40.397Z,100928.00
2018-10-07T23:21:08.535Z,100930.00
2018-10-07T23:23:36.960Z,100935.00
2018-10-07T23:26:05.090Z,100933.00
2018-10-07T23:28:33.212Z,100934.00
2018-10-07T23:31:01.287Z,100936.00
2018-10-07T23:33:29.443Z,100930.00
2018-10-07T23:35:57.541Z,100925.00
2018-10-07T23:38:25.731Z,100924.00
2018-10-07T23:40:55.225Z,100927.00
2018-10-07T23:43:23.334Z,100926.00
2018-10-07T23:45:51.524Z,100922.00
2018-10-07T23:48:19.590Z,100920.00
2018-10-07T23:50:47.759Z,100919.00
2018-10-07T23:53:15.980Z,100915.00
2018-10-07T23:55:44.183Z,100920.00
2018-10-07T23:58:12.641Z,100912.00
